createdAt,value
2023-10-29T00:00:29.935Z,3.17
2023-10-29T00:02:59.333Z,2.70
2023-10-29T00:05:27.651Z,3.00
2023-10-29T00:07:55.633Z,2.43
2023-10-29T00:10:25.084Z,2.80
2023-10-29T00:12:53.147Z,2.40
2023-10-29T00:15:21.500Z,2.53
2023-10-29T00:17:50.669Z,2.70
2023-10-29T00:20:19.239Z,2.20
2023-10-29T00:22:47.246Z,2.40
2023-10-29T00:25:15.675Z,2.77
2023-10-29T00:27:45.069Z,2.47
2023-10-29T00:30:13.875Z,2.47
2023-10-29T00:32:42.393Z,2.57
2023-10-29T00:35:11.321Z,2.67
2023-10-29T00:37:39.667Z,2.13
2023-10-29T00:40:09.551Z,2.50
2023-10-29T00:42:37.575Z,2.20
2023-10-29T00:45:07.931Z,2.37
2023-10-29T00:47:36.369Z,2.60
2023-10-29T00:50:04.370Z,2.40
2023-10-29T00:52:33.070Z,2.17
2023-10-29T00:55:01.380Z,2.30
2023-10-29T00:57:29.405Z,2.67
2023-10-29T00:59:57.365Z,2.37
2023-10-29T01:02:26.734Z,2.27
2023-10-29T01:04:55.006Z,2.00
2023-10-29T01:07:23.142Z,2.30
2023-10-29T01:09:51.783Z,2.40
2023-10-29T01:12:19.637Z,2.37
2023-10-29T01:14:47.670Z,2.60
2023-10-29T01:17:15.584Z,2.50
2023-10-29T01:19:44.795Z,2.20
2023-10-29T01:22:12.541Z,2.23
2023-10-29T01:24:40.581Z,1.97
2023-10-29T01:27:09.109Z,2.17
2023-10-29T01:29:37.316Z,2.00
2023-10-29T01:32:05.745Z,2.20
2023-10-29T01:34:34.288Z,2.20
2023-10-29T01:37:03.870Z,2.00
2023-10-29T01:39:31.859Z,2.20
2023-10-29T01:41:59.675Z,1.90
2023-10-29T01:44:28.101Z,2.07
2023-10-29T01:46:56.136Z,2.30
2023-10-29T01:49:24.127Z,1.90
2023-10-29T01:51:52.094Z,1.90
2023-10-29T01:54:21.473Z,1.70
2023-10-29T01:56:49.593Z,1.90
2023-10-29T01:59:18.051Z,1.67
2023-10-29T02:01:46.770Z,1.87
2023-10-29T02:04:15.155Z,1.90
2023-10-29T02:06:43.102Z,1.93
2023-10-29T02:09:11.649Z,1.80
2023-10-29T02:11:41.078Z,1.80
2023-10-29T02:14:09.059Z,2.20
2023-10-29T02:16:37.414Z,1.80
2023-10-29T02:19:05.580Z,1.80
2023-10-29T02:21:33.658Z,1.50
2023-10-29T02:24:03.096Z,1.77
2023-10-29T02:26:31.057Z,1.73
2023-10-29T02:28:59.021Z,1.60
2023-10-29T02:31:27.108Z,1.80
2023-10-29T02:33:55.795Z,2.00
2023-10-29T02:36:23.791Z,2.00
2023-10-29T02:38:51.772Z,1.63
2023-10-29T02:41:21.200Z,1.70
2023-10-29T02:43:49.134Z,2.10
2023-10-29T02:46:17.720Z,1.53
2023-10-29T02:48:46.329Z,1.70
2023-10-29T02:51:14.207Z,1.90
2023-10-29T02:53:42.228Z,1.93
2023-10-29T02:56:10.656Z,1.90
2023-10-29T02:58:40.491Z,1.90
2023-10-29T03:01:09.330Z,2.40
2023-10-29T03:03:38.467Z,1.83
2023-10-29T03:06:07.549Z,2.57
2023-10-29T03:08:35.995Z,2.40
2023-10-29T03:11:04.049Z,2.37
2023-10-29T03:13:31.876Z,2.30
2023-10-29T03:16:01.611Z,2.23
2023-10-29T03:18:30.588Z,2.77
2023-10-29T03:20:58.667Z,2.53
2023-10-29T03:23:26.690Z,2.83
2023-10-29T03:25:55.445Z,2.50
2023-10-29T03:28:23.283Z,2.40
2023-10-29T03:30:51.168Z,2.20
2023-10-29T03:33:20.501Z,2.20
2023-10-29T03:35:48.417Z,2.70
2023-10-29T03:38:16.304Z,2.77
2023-10-29T03:40:44.246Z,2.10
2023-10-29T03:43:13.797Z,2.70
2023-10-29T03:45:42.070Z,2.50
2023-10-29T03:48:12.726Z,2.57
2023-10-29T03:53:46.342Z,2.53
2023-10-29T03:56:15.017Z,2.50
2023-10-29T03:58:47.898Z,2.50
2023-10-29T04:01:16.187Z,2.57
2023-10-29T04:03:53.522Z,2.93
2023-10-29T04:06:25.797Z,2.27
2023-10-29T04:08:54.154Z,2.63
2023-10-29T04:11:22.372Z,2.20
2023-10-29T04:13:52.867Z,2.20
2023-10-29T04:16:23.224Z,2.13
2023-10-29T04:18:51.464Z,2.03
2023-10-29T04:21:19.442Z,2.27
2023-10-29T04:23:49.285Z,2.10
2023-10-29T04:26:17.733Z,2.20
2023-10-29T04:28:46.839Z,2.20
2023-10-29T04:31:17.240Z,2.00
2023-10-29T04:33:49.326Z,2.37
2023-10-29T04:36:23.812Z,2.00
2023-10-29T04:38:56.058Z,1.87
2023-10-29T04:41:24.039Z,2.20
2023-10-29T04:43:52.536Z,1.90
2023-10-29T04:46:20.431Z,2.03
2023-10-29T04:48:48.699Z,2.30
2023-10-29T04:51:17.175Z,2.03
2023-10-29T04:53:45.094Z,1.70
2023-10-29T04:56:14.938Z,2.20
2023-10-29T04:58:43.219Z,2.23
2023-10-29T05:01:13.527Z,2.07
2023-10-29T05:03:41.722Z,2.10
2023-10-29T05:06:09.683Z,2.00
2023-10-29T05:08:40.756Z,1.80
2023-10-29T05:11:08.940Z,2.10
2023-10-29T05:13:45.011Z,1.90
2023-10-29T05:16:13.427Z,1.83
2023-10-29T05:18:45.003Z,2.00
2023-10-29T05:21:13.216Z,2.10
2023-10-29T05:23:41.875Z,1.80
2023-10-29T05:26:12.008Z,2.10
2023-10-29T05:28:44.655Z,1.90
2023-10-29T05:31:12.993Z,1.90
2023-10-29T05:33:43.491Z,1.90
2023-10-29T05:36:12.593Z,1.50
2023-10-29T05:38:41.467Z,1.40
2023-10-29T05:41:09.658Z,1.53
2023-10-29T05:43:38.375Z,1.80
2023-10-29T05:46:08.499Z,1.70
2023-10-29T05:48:36.908Z,1.60
2023-10-29T05:51:05.521Z,1.83
2023-10-29T05:53:33.880Z,1.90
2023-10-29T05:56:01.882Z,1.77
2023-10-29T05:58:29.948Z,1.90
2023-10-29T06:00:58.107Z,1.73
2023-10-29T06:03:27.989Z,1.50
2023-10-29T06:05:57.067Z,1.70
2023-10-29T06:08:25.876Z,1.30
2023-10-29T06:10:57.223Z,1.50
2023-10-29T06:13:25.507Z,1.60
2023-10-29T06:15:54.248Z,1.60
2023-10-29T06:18:22.431Z,1.70
2023-10-29T06:20:54.336Z,1.47
2023-10-29T06:23:22.569Z,1.50
2023-10-29T06:25:55.794Z,1.70
2023-10-29T06:28:23.750Z,1.80
2023-10-29T06:30:51.893Z,1.43
2023-10-29T06:33:19.982Z,1.40
2023-10-29T06:35:47.901Z,1.40
2023-10-29T06:38:17.277Z,1.90
2023-10-29T06:40:49.657Z,1.70
2023-10-29T06:43:17.635Z,1.10
2023-10-29T06:45:45.482Z,1.50
2023-10-29T06:48:13.376Z,1.60
2023-10-29T06:50:43.800Z,1.60
2023-10-29T06:53:16.831Z,1.30
2023-10-29T06:55:51.856Z,1.50
2023-10-29T06:58:20.321Z,1.40
2023-10-29T07:00:48.429Z,1.27
2023-10-29T07:03:16.911Z,1.27
2023-10-29T07:05:45.426Z,1.20
2023-10-29T07:08:15.657Z,1.10
2023-10-29T07:10:51.328Z,1.30
2023-10-29T07:13:19.468Z,1.30
2023-10-29T07:15:47.777Z,1.20
2023-10-29T07:18:15.972Z,1.30
2023-10-29T07:20:44.258Z,1.40
2023-10-29T07:23:15.144Z,1.47
2023-10-29T07:25:43.488Z,1.30
2023-10-29T07:28:13.365Z,0.93
2023-10-29T07:30:46.533Z,1.33
2023-10-29T07:33:21.263Z,1.43
2023-10-29T07:35:49.677Z,1.00
2023-10-29T07:38:18.169Z,1.53
2023-10-29T07:40:46.246Z,1.07
2023-10-29T07:43:18.494Z,1.10
2023-10-29T07:45:49.155Z,1.20
2023-10-29T07:48:18.640Z,1.23
2023-10-29T07:50:51.663Z,1.23
2023-10-29T07:53:20.369Z,1.07
2023-10-29T07:55:48.400Z,1.00
2023-10-29T07:58:18.077Z,1.30
2023-10-29T08:00:46.093Z,1.00
2023-10-29T08:03:15.257Z,1.10
2023-10-29T08:05:55.428Z,1.20
2023-10-29T08:08:27.036Z,1.20
2023-10-29T08:11:01.490Z,1.10
2023-10-29T08:13:47.416Z,1.00
2023-10-29T08:16:20.464Z,1.50
2023-10-29T08:18:49.393Z,1.20
2023-10-29T08:21:54.170Z,1.20
2023-10-29T08:24:22.747Z,1.00
2023-10-29T08:26:52.450Z,1.00
2023-10-29T08:29:25.128Z,1.43
2023-10-29T08:32:05.250Z,1.20
2023-10-29T08:34:36.475Z,1.17
2023-10-29T08:37:06.791Z,1.13
2023-10-29T08:39:42.188Z,1.07
2023-10-29T08:42:46.772Z,1.20
2023-10-29T08:45:38.620Z,1.00
2023-10-29T08:48:58.040Z,1.23
2023-10-29T08:51:39.710Z,1.20
2023-10-29T08:54:25.878Z,1.00
2023-10-29T08:57:19.359Z,1.23
2023-10-29T08:59:57.461Z,1.10
2023-10-29T09:03:14.082Z,1.13
2023-10-29T09:09:12.126Z,1.20
2023-10-29T09:12:11.950Z,1.00
2023-10-29T09:15:15.523Z,1.63
2023-10-29T09:18:33.074Z,0.90
2023-10-29T09:21:14.228Z,1.37
2023-10-29T09:23:48.960Z,1.13
2023-10-29T09:26:37.985Z,1.03
2023-10-29T09:29:24.979Z,1.10
2023-10-29T09:32:03.213Z,0.90
2023-10-29T09:34:41.539Z,1.00
2023-10-29T09:37:10.132Z,1.00
2023-10-29T09:39:38.585Z,1.00
2023-10-29T09:42:09.980Z,1.40
2023-10-29T09:44:39.700Z,1.10
2023-10-29T09:47:12.587Z,1.07
2023-10-29T09:49:45.302Z,1.00
2023-10-29T09:52:13.258Z,1.20
2023-10-29T09:55:44.083Z,1.30
2023-10-29T09:58:12.004Z,1.10
2023-10-29T10:00:49.795Z,1.00
2023-10-29T10:03:25.494Z,0.90
2023-10-29T10:05:58.744Z,1.00
2023-10-29T10:08:34.779Z,0.90
2023-10-29T10:11:03.709Z,1.40
2023-10-29T10:13:42.777Z,0.93
2023-10-29T10:16:26.816Z,0.97
2023-10-29T10:18:56.052Z,1.13
2023-10-29T10:21:29.164Z,1.20
2023-10-29T10:23:59.470Z,0.97
2023-10-29T10:26:37.768Z,1.00
2023-10-29T10:29:10.060Z,0.97
2023-10-29T10:31:38.293Z,0.87
2023-10-29T10:34:14.109Z,0.80
2023-10-29T10:36:49.448Z,0.93
2023-10-29T10:39:22.110Z,1.00
2023-10-29T10:41:51.187Z,0.90
2023-10-29T10:44:22.136Z,1.10
2023-10-29T10:46:51.260Z,1.10
2023-10-29T10:49:25.714Z,1.00
2023-10-29T10:52:05.617Z,1.23
2023-10-29T10:54:40.312Z,1.03
2023-10-29T10:57:08.691Z,1.20
2023-10-29T10:59:37.257Z,1.20
2023-10-29T11:02:07.006Z,1.20
2023-10-29T11:04:40.304Z,1.20
2023-10-29T11:07:10.127Z,1.80
2023-10-29T11:09:40.950Z,1.27
2023-10-29T11:12:09.945Z,1.40
2023-10-29T11:14:50.520Z,1.70
2023-10-29T11:17:24.210Z,1.30
2023-10-29T11:20:19.070Z,1.10
2023-10-29T11:23:13.518Z,1.23
2023-10-29T11:25:43.612Z,1.30
2023-10-29T11:28:42.926Z,1.43
2023-10-29T11:31:14.628Z,1.00
2023-10-29T11:33:45.580Z,1.47
2023-10-29T11:36:35.949Z,1.80
2023-10-29T11:39:33.774Z,1.30
2023-10-29T11:42:02.014Z,1.30
2023-10-29T11:44:31.129Z,1.07
2023-10-29T11:47:09.056Z,1.20
2023-10-29T11:50:15.563Z,1.33
2023-10-29T11:52:44.308Z,1.80
2023-10-29T11:55:14.350Z,1.23
2023-10-29T11:57:47.329Z,1.50
2023-10-29T12:00:17.043Z,1.23
2023-10-29T12:02:48.326Z,1.90
2023-10-29T12:05:18.150Z,1.47
2023-10-29T12:07:46.790Z,1.40
2023-10-29T12:10:16.165Z,1.20
2023-10-29T12:12:44.368Z,1.77
2023-10-29T12:15:17.415Z,1.70
2023-10-29T12:17:46.434Z,1.10
2023-10-29T12:20:22.754Z,1.40
2023-10-29T12:22:54.811Z,1.27
2023-10-29T12:25:24.626Z,1.40
2023-10-29T12:27:52.814Z,1.10
2023-10-29T12:30:37.040Z,1.07
2023-10-29T12:33:18.955Z,1.37
2023-10-29T12:35:48.890Z,1.20
2023-10-29T12:38:16.874Z,1.20
2023-10-29T12:41:09.706Z,1.10
2023-10-29T12:43:38.354Z,1.07
2023-10-29T12:46:07.048Z,1.30
2023-10-29T12:48:35.734Z,1.30
2023-10-29T12:51:04.224Z,1.30
2023-10-29T12:53:32.894Z,1.50
2023-10-29T12:56:01.218Z,1.47
2023-10-29T12:58:30.441Z,1.20
2023-10-29T13:01:01.612Z,1.20
2023-10-29T13:03:29.673Z,1.30
2023-10-29T13:05:57.589Z,1.33
2023-10-29T13:08:26.629Z,1.20
2023-10-29T13:10:54.861Z,1.40
2023-10-29T13:13:24.945Z,1.10
2023-10-29T13:15:55.430Z,1.40
2023-10-29T13:18:24.119Z,1.33
2023-10-29T13:20:59.540Z,1.47
2023-10-29T13:23:28.348Z,1.60
2023-10-29T13:25:59.316Z,1.30
2023-10-29T13:28:27.459Z,1.50
2023-10-29T13:30:57.279Z,1.53
2023-10-29T13:33:26.245Z,1.30
2023-10-29T13:35:54.261Z,1.50
2023-10-29T13:38:22.496Z,1.60
2023-10-29T13:40:50.608Z,1.50
2023-10-29T13:43:18.974Z,1.40
2023-10-29T13:46:01.831Z,1.20
2023-10-29T13:48:33.611Z,1.40
2023-10-29T13:51:06.401Z,1.50
2023-10-29T13:53:52.641Z,1.20
2023-10-29T14:01:10.169Z,1.60
2023-10-29T14:15:22.722Z,1.50
2023-10-29T14:18:40.286Z,1.50
2023-10-29T14:25:47.653Z,1.70
2023-10-29T15:06:47.172Z,1.90
2023-10-29T16:13:40.015Z,1.70
2023-10-29T16:16:58.279Z,1.80
2023-10-29T16:27:21.651Z,1.50
2023-10-29T16:29:52.666Z,1.40
2023-10-29T16:35:52.980Z,1.50
2023-10-29T16:38:47.053Z,1.37
2023-10-29T16:41:25.516Z,1.40
2023-10-29T16:44:41.097Z,1.57
2023-10-29T16:58:34.191Z,1.50
2023-10-29T17:34:35.875Z,1.87
2023-10-29T18:00:55.975Z,1.53
2023-10-29T18:18:35.187Z,1.70
2023-10-29T18:21:33.786Z,1.70
2023-10-29T18:32:18.239Z,1.60
2023-10-29T18:35:51.393Z,1.80
2023-10-29T19:05:31.275Z,1.30
2023-10-29T19:31:22.888Z,1.73
2023-10-29T19:51:45.869Z,1.50
2023-10-29T19:54:16.570Z,1.60
2023-10-29T20:00:29.451Z,1.43
2023-10-29T20:18:38.007Z,1.23
2023-10-29T20:21:16.969Z,1.30
2023-10-29T20:23:57.309Z,1.03
2023-10-29T20:26:37.186Z,1.00
2023-10-29T20:32:07.551Z,1.00
2023-10-29T20:34:43.530Z,0.90
2023-10-29T20:37:12.048Z,1.00
2023-10-29T20:39:45.296Z,1.30
2023-10-29T20:42:29.272Z,1.30
2023-10-29T20:45:18.972Z,0.80
2023-10-29T20:51:00.690Z,1.00
2023-10-29T20:57:41.909Z,1.20
2023-10-29T21:11:55.005Z,0.80
2023-10-29T21:14:57.768Z,1.00
2023-10-29T21:17:27.248Z,0.80
2023-10-29T21:20:05.452Z,0.90
2023-10-29T21:22:46.227Z,0.80
2023-10-29T21:25:18.086Z,1.23
2023-10-29T21:27:48.453Z,0.90
2023-10-29T21:30:18.725Z,1.10
2023-10-29T21:32:57.730Z,1.17
2023-10-29T21:35:37.043Z,0.90
2023-10-29T21:38:05.367Z,0.80
2023-10-29T21:40:38.293Z,0.87
2023-10-29T21:43:21.262Z,0.83
2023-10-29T21:45:51.496Z,1.10
2023-10-29T21:48:20.236Z,1.00
2023-10-29T21:51:02.405Z,1.03
2023-10-29T22:00:14.212Z,1.30
2023-10-29T22:03:09.720Z,1.00
2023-10-29T22:05:46.310Z,1.07
2023-10-29T22:08:44.441Z,1.20
2023-10-29T22:20:23.598Z,1.30
2023-10-29T22:23:39.743Z,1.23
2023-10-29T22:27:03.460Z,1.13
2023-10-29T22:30:33.502Z,0.90
2023-10-29T22:33:39.386Z,1.00
2023-10-29T22:36:41.115Z,1.47
2023-10-29T22:43:04.391Z,1.03
2023-10-29T23:16:39.641Z,1.20
2023-10-29T23:28:59.877Z,1.07
2023-10-29T23:31:34.510Z,1.50
2023-10-29T23:34:30.111Z,1.40
2023-10-29T23:37:07.893Z,1.20
2023-10-29T23:54:57.932Z,1.27
